createdAt,value
2019-01-22T00:00:14.093Z,97806.98
2019-01-22T00:02:15.709Z,97802.25
2019-01-22T00:04:17.327Z,97795.35
2019-01-22T00:06:18.952Z,97797.16
2019-01-22T00:08:20.571Z,97788.78
2019-01-22T00:10:22.216Z,97787.56
2019-01-22T00:12:23.846Z,97784.64
2019-01-22T00:14:25.478Z,97789.34
2019-01-22T00:16:27.087Z,97781.22
2019-01-22T00:18:28.688Z,97779.30
2019-01-22T00:20:30.301Z,97774.41
2019-01-22T00:22:31.934Z,97775.17
2019-01-22T00:24:33.556Z,97732.64
2019-01-22T00:26:35.252Z,97771.44
2019-01-22T00:28:36.906Z,97771.64
2019-01-22T00:30:38.506Z,97770.61
2019-01-22T00:32:40.109Z,97762.38
2019-01-22T00:34:41.772Z,97757.50
2019-01-22T00:36:43.378Z,97761.98
2019-01-22T00:38:44.985Z,97763.00
2019-01-22T00:40:46.608Z,97761.09
2019-01-22T00:42:48.217Z,97762.96
2019-01-22T00:44:49.844Z,97752.86
2019-01-22T00:46:51.526Z,97759.88
2019-01-22T00:48:53.134Z,97753.26
2019-01-22T00:50:54.727Z,97752.92
2019-01-22T00:52:56.348Z,97746.73
2019-01-22T00:54:57.975Z,97748.59
2019-01-22T00:56:59.585Z,97744.87
2019-01-22T00:59:01.233Z,97773.88
2019-01-22T01:01:02.843Z,97747.59
2019-01-22T01:03:04.464Z,97741.77
2019-01-22T01:05:06.113Z,97736.30
2019-01-22T01:07:07.729Z,97734.66
2019-01-22T01:09:09.338Z,97733.09
2019-01-22T01:11:10.945Z,97728.92
2019-01-22T01:13:12.544Z,97725.22
2019-01-22T01:15:14.162Z,97726.56
2019-01-22T01:17:15.815Z,97721.16
2019-01-22T01:19:17.434Z,97722.49
2019-01-22T01:21:19.068Z,97715.31
2019-01-22T01:23:20.679Z,97724.80
2019-01-22T01:25:22.285Z,97720.98
2019-01-22T01:27:23.884Z,97718.91
2019-01-22T01:29:25.557Z,97724.50
2019-01-22T01:31:27.171Z,97719.03
2019-01-22T01:33:28.773Z,97718.00
2019-01-22T01:35:30.392Z,97705.97
2019-01-22T01:37:32.011Z,97707.92
2019-01-22T01:39:33.669Z,97712.45
2019-01-22T01:41:35.324Z,97711.47
2019-01-22T01:43:36.929Z,97711.33
2019-01-22T01:45:38.572Z,97711.57
2019-01-22T01:47:40.188Z,97709.17
2019-01-22T01:49:41.833Z,97705.33
2019-01-22T01:51:43.431Z,97704.43
2019-01-22T01:53:45.034Z,97701.80
2019-01-22T01:55:46.655Z,97697.05
2019-01-22T01:57:48.283Z,97695.39
2019-01-22T01:59:49.942Z,97693.22
2019-01-22T02:01:51.602Z,97691.08
2019-01-22T02:03:53.206Z,97689.80
2019-01-22T02:05:54.810Z,97690.23
2019-01-22T02:07:56.437Z,97680.92
2019-01-22T02:09:58.081Z,97683.90
2019-01-22T02:11:59.686Z,97682.20
2019-01-22T02:14:01.285Z,97680.94
2019-01-22T02:16:02.887Z,97676.24
2019-01-22T02:18:04.551Z,97672.80
2019-01-22T02:20:06.177Z,97677.03
2019-01-22T02:22:07.793Z,97674.55
2019-01-22T02:24:09.438Z,97669.02
2019-01-22T02:26:11.060Z,97666.47
2019-01-22T02:28:12.726Z,97669.89
2019-01-22T02:30:14.362Z,97663.56
2019-01-22T02:32:15.976Z,97665.75
2019-01-22T02:34:17.581Z,97660.54
2019-01-22T02:36:19.229Z,97662.70
2019-01-22T02:38:20.841Z,97659.31
2019-01-22T02:40:22.465Z,97658.03
2019-01-22T02:42:24.108Z,97654.63
2019-01-22T02:44:25.766Z,97657.98
2019-01-22T02:46:27.423Z,97648.17
2019-01-22T02:48:29.029Z,97649.47
2019-01-22T02:50:30.638Z,97641.88
2019-01-22T02:52:32.257Z,97647.11
2019-01-22T02:54:33.914Z,97638.69
2019-01-22T02:56:35.536Z,97641.30
2019-01-22T02:58:37.151Z,97638.19
2019-01-22T03:00:38.795Z,97632.09
2019-01-22T03:02:40.402Z,97635.42
2019-01-22T03:04:42.056Z,97629.13
2019-01-22T03:06:43.669Z,97629.21
2019-01-22T03:08:45.302Z,97627.15
2019-01-22T03:10:46.905Z,97623.80
2019-01-22T03:12:48.506Z,97619.48
2019-01-22T03:14:50.159Z,97624.52
2019-01-22T03:16:51.778Z,97619.41
2019-01-22T03:18:53.767Z,97616.88
2019-01-22T03:20:55.408Z,97619.41
2019-01-22T03:22:57.012Z,97615.58
2019-01-22T03:24:58.626Z,97618.51
2019-01-22T03:27:00.275Z,97609.63
2019-01-22T03:29:01.929Z,97613.02
2019-01-22T03:31:03.538Z,97612.52
2019-01-22T03:33:05.206Z,97612.47
2019-01-22T03:35:06.832Z,97610.35
2019-01-22T03:37:08.436Z,97611.12
2019-01-22T03:39:10.058Z,97613.97
2019-01-22T03:41:11.672Z,97604.14
2019-01-22T03:43:13.340Z,97599.89
2019-01-22T03:45:14.992Z,97600.75
2019-01-22T03:47:16.594Z,97599.55
2019-01-22T03:49:18.208Z,97598.27
2019-01-22T03:51:19.853Z,97597.00
2019-01-22T03:53:21.484Z,97593.67
2019-01-22T03:55:23.090Z,97590.76
2019-01-22T03:57:24.717Z,97583.19
2019-01-22T03:59:26.323Z,97584.10
2019-01-22T04:01:27.926Z,97578.68
2019-01-22T04:03:29.526Z,97580.00
2019-01-22T04:05:31.129Z,97576.20
2019-01-22T04:07:32.741Z,97575.77
2019-01-22T04:09:34.377Z,97570.73
2019-01-22T04:11:35.987Z,97568.66
2019-01-22T04:13:37.596Z,97563.59
2019-01-22T04:15:39.221Z,97567.92
2019-01-22T04:17:40.857Z,97564.30
2019-01-22T04:19:42.490Z,97555.05
2019-01-22T04:21:44.165Z,97559.02
2019-01-22T04:23:45.763Z,97559.94
2019-01-22T04:25:47.384Z,97560.45
2019-01-22T04:27:48.991Z,97553.35
2019-01-22T04:29:50.634Z,97554.62
2019-01-22T04:31:52.244Z,97553.77
2019-01-22T04:33:53.836Z,97548.24
2019-01-22T04:35:55.490Z,97550.73
2019-01-22T04:37:57.094Z,97547.18
2019-01-22T04:39:58.689Z,97545.28
2019-01-22T04:42:00.336Z,97548.57
2019-01-22T04:44:01.952Z,97545.11
2019-01-22T04:46:03.546Z,97545.03
2019-01-22T04:48:05.173Z,97548.25
2019-01-22T04:50:06.827Z,97537.00
2019-01-22T04:52:08.435Z,97545.34
2019-01-22T04:54:10.288Z,97548.17
2019-01-22T04:56:11.692Z,97537.03
2019-01-22T04:58:13.294Z,97538.64
2019-01-22T05:00:14.948Z,97540.69
2019-01-22T05:02:16.563Z,97541.81
2019-01-22T05:04:18.155Z,97548.64
2019-01-22T05:06:19.749Z,97540.58
2019-01-22T05:08:21.353Z,97542.84
2019-01-22T05:10:22.944Z,97541.73
2019-01-22T05:12:24.550Z,97535.36
2019-01-22T05:14:26.154Z,97534.14
2019-01-22T05:16:27.763Z,97534.72
2019-01-22T05:18:29.369Z,97533.22
2019-01-22T05:20:30.974Z,97529.14
2019-01-22T05:22:32.570Z,97541.61
2019-01-22T05:24:34.227Z,97534.20
2019-01-22T05:26:35.841Z,97535.20
2019-01-22T05:28:37.445Z,97527.16
2019-01-22T05:30:39.110Z,97524.80
2019-01-22T05:32:40.727Z,97519.80
2019-01-22T05:34:42.331Z,97519.45
2019-01-22T05:36:43.983Z,97523.81
2019-01-22T05:38:45.639Z,97519.64
2019-01-22T05:40:47.257Z,97519.34
2019-01-22T05:42:48.885Z,97515.95
2019-01-22T05:44:50.485Z,97519.00
2019-01-22T05:46:52.090Z,97511.00
2019-01-22T05:48:53.733Z,97508.03
2019-01-22T05:50:55.363Z,97504.14
2019-01-22T05:52:56.951Z,97506.17
2019-01-22T05:54:58.556Z,97509.80
2019-01-22T05:57:00.163Z,97506.26
2019-01-22T05:59:01.797Z,97502.72
2019-01-22T06:01:03.410Z,97497.83
2019-01-22T06:03:05.009Z,97504.02
2019-01-22T06:05:06.592Z,97497.38
2019-01-22T06:07:08.186Z,97497.95
2019-01-22T06:09:09.781Z,97505.27
2019-01-22T06:11:11.426Z,97493.84
2019-01-22T06:13:13.013Z,97488.84
2019-01-22T06:15:14.596Z,97488.92
2019-01-22T06:17:16.197Z,97485.73
2019-01-22T06:19:17.804Z,97484.72
2019-01-22T06:21:19.447Z,97483.37
2019-01-22T06:23:21.056Z,97491.92
2019-01-22T06:25:22.649Z,97485.20
2019-01-22T06:27:24.430Z,97485.55
2019-01-22T06:29:25.954Z,97484.87
2019-01-22T06:31:27.550Z,97485.64
2019-01-22T06:33:29.169Z,97496.14
2019-01-22T06:35:30.771Z,97492.16
2019-01-22T06:37:32.370Z,97491.94
2019-01-22T06:39:33.980Z,97487.86
2019-01-22T06:41:35.568Z,97486.30
2019-01-22T06:43:37.176Z,97489.01
2019-01-22T06:45:38.778Z,97488.17
2019-01-22T06:47:40.373Z,97483.98
2019-01-22T06:49:41.970Z,97485.48
2019-01-22T06:51:43.577Z,97481.06
2019-01-22T06:53:45.231Z,97483.00
2019-01-22T06:55:46.830Z,97477.21
2019-01-22T06:57:48.416Z,97479.05
2019-01-22T06:59:50.085Z,97461.59
2019-01-22T07:01:51.671Z,97488.13
2019-01-22T07:03:53.269Z,97484.61
2019-01-22T07:05:54.900Z,97480.97
2019-01-22T07:07:56.498Z,97484.09
2019-01-22T07:10:00.333Z,97479.70
2019-01-22T07:11:59.782Z,97490.02
2019-01-22T07:14:01.368Z,97485.42
2019-01-22T07:16:02.990Z,97482.88
2019-01-22T07:18:04.590Z,97483.52
2019-01-22T07:20:06.195Z,97483.67
2019-01-22T07:22:07.817Z,97491.02
2019-01-22T07:24:09.425Z,97484.31
2019-01-22T07:26:11.045Z,97448.12
2019-01-22T07:28:12.686Z,97487.54
2019-01-22T07:30:14.295Z,97485.86
2019-01-22T07:32:15.904Z,97480.34
2019-01-22T07:34:17.540Z,97482.00
2019-01-22T07:36:19.153Z,97473.38
2019-01-22T07:38:20.763Z,97475.22
2019-01-22T07:40:22.374Z,97470.34
2019-01-22T07:42:24.010Z,97466.27
2019-01-22T07:44:25.606Z,97464.47
2019-01-22T07:46:27.257Z,97461.58
2019-01-22T07:48:28.877Z,97465.93
2019-01-22T07:50:30.474Z,97469.59
2019-01-22T07:52:32.065Z,97464.34
2019-01-22T07:54:33.702Z,97463.17
2019-01-22T07:56:35.304Z,97461.55
2019-01-22T07:58:36.911Z,97456.54
2019-01-22T08:00:38.548Z,97454.13
2019-01-22T08:02:40.146Z,97453.36
2019-01-22T08:04:41.728Z,97452.32
2019-01-22T08:06:44.151Z,97455.19
2019-01-22T08:08:45.745Z,97459.52
2019-01-22T08:10:47.338Z,97452.56
2019-01-22T08:12:48.933Z,97453.70
2019-01-22T08:14:50.587Z,97453.86
2019-01-22T08:16:52.172Z,97451.90
2019-01-22T08:18:53.766Z,97453.87
2019-01-22T08:20:55.365Z,97451.97
2019-01-22T08:22:56.964Z,97453.45
2019-01-22T08:25:00.783Z,97453.16
2019-01-22T08:27:00.227Z,97456.32
2019-01-22T08:29:01.849Z,97453.91
2019-01-22T08:31:03.456Z,97451.49
2019-01-22T08:33:05.044Z,97449.83
2019-01-22T08:35:06.732Z,97448.58
2019-01-22T08:37:08.339Z,97443.95
2019-01-22T08:39:09.937Z,97442.53
2019-01-22T08:41:11.588Z,97441.54
2019-01-22T08:43:13.186Z,97446.15
2019-01-22T08:45:14.788Z,97445.16
2019-01-22T08:47:16.418Z,97445.73
2019-01-22T08:49:18.057Z,97448.05
2019-01-22T08:51:19.654Z,97444.38
2019-01-22T08:53:21.255Z,97431.76
2019-01-22T08:55:22.904Z,97431.72
2019-01-22T08:57:24.505Z,97426.13
2019-01-22T08:59:26.092Z,97429.12
2019-01-22T09:01:27.730Z,97425.61
2019-01-22T09:03:29.325Z,97427.38
2019-01-22T09:05:30.928Z,97420.32
2019-01-22T09:07:32.566Z,97426.06
2019-01-22T09:09:34.161Z,97423.83
2019-01-22T09:11:35.757Z,97420.00
2019-01-22T09:13:37.398Z,97414.56
2019-01-22T09:15:39.007Z,97411.67
2019-01-22T09:17:40.617Z,97417.01
2019-01-22T09:19:42.245Z,97414.43
2019-01-22T09:21:43.855Z,97414.98
2019-01-22T09:23:45.462Z,97406.95
2019-01-22T09:25:47.082Z,97402.58
2019-01-22T09:27:48.693Z,97404.44
2019-01-22T09:29:50.289Z,97399.94
2019-01-22T09:31:51.872Z,97404.62
2019-01-22T09:33:53.466Z,97396.54
2019-01-22T09:35:55.102Z,97400.25
2019-01-22T09:37:56.707Z,97396.97
2019-01-22T09:39:58.308Z,97396.09
2019-01-22T09:41:59.902Z,97391.94
2019-01-22T09:44:01.493Z,97394.28
2019-01-22T09:46:03.090Z,97391.84
2019-01-22T09:48:04.719Z,97390.12
2019-01-22T09:50:06.353Z,97387.63
2019-01-22T09:52:07.963Z,97392.23
2019-01-22T09:54:09.572Z,97387.86
2019-01-22T09:56:11.201Z,97402.17
2019-01-22T09:58:12.811Z,97389.09
2019-01-22T10:00:14.414Z,97385.38
2019-01-22T10:02:16.009Z,97384.77
2019-01-22T10:04:17.602Z,97375.91
2019-01-22T10:06:19.208Z,97375.47
2019-01-22T10:08:20.830Z,97370.32
2019-01-22T10:10:22.447Z,97354.81
2019-01-22T10:12:24.104Z,97374.59
2019-01-22T10:14:25.712Z,97369.96
2019-01-22T10:16:27.295Z,97365.94
2019-01-22T10:18:28.937Z,97333.55
2019-01-22T10:20:30.530Z,97366.59
2019-01-22T10:22:32.131Z,97363.37
2019-01-22T10:24:33.779Z,97367.83
2019-01-22T10:26:35.364Z,97346.54
2019-01-22T10:28:38.047Z,97358.88
2019-01-22T10:30:38.652Z,97359.55
2019-01-22T10:32:40.264Z,97355.55
2019-01-22T10:34:41.862Z,97362.09
2019-01-22T10:36:43.460Z,97354.20
2019-01-22T10:38:45.053Z,97357.99
2019-01-22T10:40:46.674Z,97351.50
2019-01-22T10:42:48.270Z,97350.51
2019-01-22T10:44:49.883Z,97346.09
2019-01-22T10:46:51.515Z,97343.13
2019-01-22T10:48:53.123Z,97342.23
2019-01-22T10:50:54.722Z,97342.85
2019-01-22T10:52:56.376Z,97333.25
2019-01-22T10:54:57.963Z,97331.30
2019-01-22T10:56:59.568Z,97333.82
2019-01-22T10:59:01.216Z,97332.47
2019-01-22T11:01:02.809Z,97322.57
2019-01-22T11:03:04.395Z,97324.50
2019-01-22T11:05:06.020Z,97326.75
2019-01-22T11:07:07.608Z,97318.70
2019-01-22T11:09:09.192Z,97317.45
2019-01-22T11:11:10.814Z,97318.83
2019-01-22T11:13:12.409Z,97312.85
2019-01-22T11:15:14.020Z,97306.48
2019-01-22T11:17:15.600Z,97303.50
2019-01-22T11:19:17.203Z,97301.72
2019-01-22T11:21:18.828Z,97302.08
2019-01-22T11:23:20.432Z,97300.27
2019-01-22T11:25:22.031Z,97297.60
2019-01-22T11:27:23.648Z,97297.03
2019-01-22T11:29:25.253Z,97289.27
2019-01-22T11:31:26.878Z,97286.91
2019-01-22T11:33:28.506Z,97280.48
2019-01-22T11:35:30.120Z,97277.89
2019-01-22T11:37:31.735Z,97280.13
2019-01-22T11:39:33.340Z,97275.86
2019-01-22T11:41:34.939Z,97270.39
2019-01-22T11:43:36.524Z,97264.13
2019-01-22T11:45:38.141Z,97267.61
2019-01-22T11:47:39.747Z,97260.50
2019-01-22T11:49:41.360Z,97258.13
2019-01-22T11:51:42.944Z,97254.81
2019-01-22T11:53:44.796Z,97245.58
2019-01-22T11:55:50.500Z,97248.48
2019-01-22T11:57:48.096Z,97248.99
2019-01-22T11:59:49.704Z,97240.13
2019-01-22T12:01:51.293Z,97242.37
2019-01-22T12:03:52.885Z,97245.35
2019-01-22T12:05:54.537Z,97239.00
2019-01-22T12:07:56.148Z,97235.64
2019-01-22T12:09:57.760Z,97233.16
2019-01-22T12:11:59.371Z,97236.58
2019-01-22T12:14:01.023Z,97223.48
2019-01-22T12:16:02.693Z,97226.55
2019-01-22T12:18:04.400Z,97225.25
2019-01-22T12:20:06.130Z,97223.98
2019-01-22T12:22:07.782Z,97220.75
2019-01-22T12:24:09.387Z,97214.27
2019-01-22T12:26:10.992Z,97200.92
2019-01-22T12:28:13.638Z,97212.54
2019-01-22T12:30:15.273Z,97208.86
2019-01-22T12:32:16.867Z,97210.77
2019-01-22T12:34:18.461Z,97208.17
2019-01-22T12:36:20.072Z,97204.25
2019-01-22T12:38:21.670Z,97201.97
2019-01-22T12:40:23.280Z,97192.41
2019-01-22T12:42:24.905Z,97198.94
2019-01-22T12:44:26.516Z,97195.67
2019-01-22T12:46:28.118Z,97190.29
2019-01-22T12:48:29.754Z,97190.53
2019-01-22T12:50:32.412Z,97184.30
2019-01-22T12:52:34.018Z,97176.47
2019-01-22T12:54:35.653Z,97176.36
2019-01-22T12:56:37.336Z,97175.36
2019-01-22T12:58:38.934Z,97174.85
2019-01-22T13:00:40.558Z,97179.43
2019-01-22T13:02:42.213Z,97169.64
2019-01-22T13:04:43.824Z,97165.42
2019-01-22T13:06:45.422Z,97160.36
2019-01-22T13:08:47.073Z,97156.90
2019-01-22T13:10:48.670Z,97149.74
2019-01-22T13:12:50.320Z,97139.66
2019-01-22T13:14:51.945Z,97142.81
2019-01-22T13:16:53.572Z,97139.16
2019-01-22T13:18:55.218Z,97141.75
2019-01-22T13:20:56.858Z,97135.13
2019-01-22T13:22:58.469Z,97127.19
2019-01-22T13:25:00.149Z,97130.28
2019-01-22T13:27:01.752Z,97133.05
2019-01-22T13:29:03.391Z,97133.58
2019-01-22T13:31:04.993Z,97125.67
2019-01-22T13:33:06.920Z,97128.42
2019-01-22T13:35:08.545Z,97123.91
2019-01-22T13:37:10.177Z,97119.84
2019-01-22T13:39:11.875Z,97110.14
2019-01-22T13:41:13.504Z,97114.03
2019-01-22T13:43:15.136Z,97120.91
2019-01-22T13:45:16.744Z,97111.73
2019-01-22T13:47:18.341Z,97114.78
2019-01-22T13:49:19.948Z,97116.18
2019-01-22T13:51:21.565Z,97102.63
2019-01-22T13:53:23.152Z,97099.36
2019-01-22T13:55:24.745Z,97101.06
2019-01-22T13:57:26.342Z,97106.19
2019-01-22T13:59:27.984Z,97101.92
2019-01-22T14:01:29.587Z,97100.12
2019-01-22T14:03:31.199Z,97095.38
2019-01-22T14:05:32.802Z,97096.20
2019-01-22T14:07:34.407Z,97092.55
2019-01-22T14:09:35.996Z,97086.90
2019-01-22T14:11:37.618Z,97081.28
2019-01-22T14:13:39.231Z,97085.41
2019-01-22T14:15:40.820Z,97076.31
2019-01-22T14:17:42.452Z,97078.95
2019-01-22T14:19:44.036Z,97073.30
2019-01-22T14:21:45.631Z,97072.17
2019-01-22T14:23:47.269Z,97068.45
2019-01-22T14:25:48.897Z,97067.25
2019-01-22T14:27:50.480Z,97064.31
2019-01-22T14:29:52.064Z,97060.41
2019-01-22T14:31:53.706Z,97061.22
2019-01-22T14:33:55.306Z,97064.19
2019-01-22T14:35:56.924Z,97058.77
2019-01-22T14:37:58.613Z,97053.64
2019-01-22T14:40:00.223Z,97046.57
2019-01-22T14:42:01.821Z,97053.84
2019-01-22T14:44:03.471Z,97053.45
2019-01-22T14:46:05.126Z,97051.42
2019-01-22T14:48:06.771Z,97052.47
2019-01-22T14:50:08.416Z,97046.62
2019-01-22T14:52:10.018Z,97043.53
2019-01-22T14:54:11.629Z,97044.06
2019-01-22T14:56:13.263Z,97042.88
2019-01-22T14:58:14.862Z,97040.90
2019-01-22T15:00:16.515Z,97039.70
2019-01-22T15:02:18.119Z,97036.42
2019-01-22T15:04:19.723Z,97036.53
2019-01-22T15:06:21.346Z,97041.39
2019-01-22T15:08:23.155Z,97030.09
2019-01-22T15:10:24.671Z,97030.69
2019-01-22T15:12:26.271Z,97034.19
2019-01-22T15:14:27.909Z,97028.37
2019-01-22T15:16:29.523Z,97026.03
2019-01-22T15:18:31.132Z,97015.33
2019-01-22T15:20:32.767Z,97018.02
2019-01-22T15:22:34.390Z,97013.50
2019-01-22T15:24:36.044Z,97014.47
2019-01-22T15:26:39.517Z,97010.50
2019-01-22T15:28:39.420Z,97006.78
2019-01-22T15:30:41.042Z,97000.53
2019-01-22T15:32:42.682Z,97004.43
2019-01-22T15:34:44.311Z,97002.84
2019-01-22T15:36:45.913Z,96995.69
2019-01-22T15:38:47.524Z,97001.30
2019-01-22T15:40:49.122Z,96994.53
2019-01-22T15:42:50.717Z,96994.55
2019-01-22T15:44:52.348Z,96988.61
2019-01-22T15:46:53.946Z,96987.80
2019-01-22T15:48:55.550Z,96985.70
2019-01-22T15:50:57.146Z,96980.09
2019-01-22T15:52:58.793Z,96984.23
2019-01-22T15:55:00.435Z,96978.52
2019-01-22T15:57:02.224Z,96978.72
2019-01-22T15:59:03.885Z,96974.27
2019-01-22T16:01:05.496Z,96981.70
2019-01-22T16:03:07.138Z,96978.05
2019-01-22T16:05:08.754Z,96981.67
2019-01-22T16:07:10.429Z,96975.92
2019-01-22T16:09:12.070Z,96972.91
2019-01-22T16:11:13.683Z,96974.84
2019-01-22T16:13:15.302Z,96966.21
2019-01-22T16:15:16.925Z,96972.84
2019-01-22T16:17:18.532Z,96965.56
2019-01-22T16:19:23.643Z,96968.39
2019-01-22T16:21:25.251Z,96961.59
2019-01-22T16:23:26.920Z,96956.04
2019-01-22T16:25:28.549Z,96955.28
2019-01-22T16:27:30.149Z,96951.47
2019-01-22T16:29:31.752Z,96958.77
2019-01-22T16:31:33.389Z,96955.81
2019-01-22T16:33:34.988Z,96951.58
2019-01-22T16:35:36.629Z,96949.17
2019-01-22T16:37:38.240Z,96937.10
2019-01-22T16:39:39.834Z,96944.25
2019-01-22T16:41:41.435Z,96949.08
2019-01-22T16:43:43.073Z,96942.42
2019-01-22T16:45:44.679Z,96943.36
2019-01-22T16:47:46.285Z,96941.84
2019-01-22T16:49:47.911Z,96944.13
2019-01-22T16:51:49.506Z,96940.88
2019-01-22T16:53:54.779Z,96934.28
2019-01-22T16:55:52.767Z,96935.27
2019-01-22T16:57:54.361Z,96937.15
2019-01-22T16:59:55.959Z,96930.77
2019-01-22T17:01:57.571Z,96919.05
2019-01-22T17:03:59.229Z,96927.56
2019-01-22T17:06:00.883Z,96925.11
2019-01-22T17:08:02.542Z,96924.28
2019-01-22T17:10:04.177Z,96920.55
2019-01-22T17:12:05.770Z,96916.74
2019-01-22T17:14:07.366Z,96917.16
2019-01-22T17:16:08.975Z,96917.23
2019-01-22T17:18:10.573Z,96909.09
2019-01-22T17:20:12.174Z,96914.16
2019-01-22T17:22:13.793Z,96913.64
2019-01-22T17:24:15.413Z,96908.03
2019-01-22T17:26:17.009Z,96903.14
2019-01-22T17:28:18.623Z,96909.73
2019-01-22T17:30:20.280Z,96905.80
2019-01-22T17:32:21.875Z,96902.97
2019-01-22T17:34:23.480Z,96899.40
2019-01-22T17:36:25.097Z,96897.06
2019-01-22T17:38:26.719Z,96898.47
2019-01-22T17:40:28.326Z,96896.86
2019-01-22T17:42:29.935Z,96892.74
2019-01-22T17:44:31.549Z,96889.22
2019-01-22T17:46:33.185Z,96883.04
2019-01-22T17:48:34.865Z,96888.17
2019-01-22T17:50:36.494Z,96885.17
2019-01-22T17:52:38.129Z,96889.55
2019-01-22T17:54:39.725Z,96887.11
2019-01-22T17:56:41.318Z,96885.45
2019-01-22T17:58:42.913Z,96883.88
2019-01-22T18:00:44.528Z,96883.19
2019-01-22T18:02:46.140Z,96882.20
2019-01-22T18:04:47.774Z,96887.02
2019-01-22T18:06:49.388Z,96883.83
2019-01-22T18:08:51.138Z,96884.41
2019-01-22T18:10:52.734Z,96881.55
2019-01-22T18:12:54.334Z,96881.75
2019-01-22T18:14:55.961Z,96880.19
2019-01-22T18:16:57.552Z,96872.74
2019-01-22T18:18:59.160Z,96876.24
2019-01-22T18:21:00.786Z,96873.77
2019-01-22T18:23:02.382Z,96876.31
2019-01-22T18:25:04.034Z,96869.22
2019-01-22T18:27:05.647Z,96871.02
2019-01-22T18:29:07.346Z,96868.15
2019-01-22T18:31:08.964Z,96865.61
2019-01-22T18:33:10.569Z,96856.78
2019-01-22T18:35:12.192Z,96855.92
2019-01-22T18:37:13.787Z,96855.43
2019-01-22T18:39:15.386Z,96852.02
2019-01-22T18:41:16.992Z,96855.30
2019-01-22T18:43:18.601Z,96852.22
2019-01-22T18:45:20.194Z,96846.05
2019-01-22T18:47:21.817Z,96844.44
2019-01-22T18:49:23.437Z,96845.09
2019-01-22T18:51:25.052Z,96843.48
2019-01-22T18:53:26.689Z,96832.52
2019-01-22T18:55:28.285Z,96832.08
2019-01-22T18:57:29.868Z,96833.48
2019-01-22T18:59:31.476Z,96831.23
2019-01-22T19:01:33.070Z,96840.61
2019-01-22T19:03:34.679Z,96829.03
2019-01-22T19:05:36.341Z,96837.97
2019-01-22T19:07:38.011Z,96831.90
2019-01-22T19:09:39.650Z,96811.60
2019-01-22T19:11:41.292Z,96831.45
2019-01-22T19:13:42.889Z,96835.63
2019-01-22T19:15:44.515Z,96833.29
2019-01-22T19:17:46.129Z,96824.91
2019-01-22T19:19:47.739Z,96825.10
2019-01-22T19:21:49.387Z,96817.11
2019-01-22T19:23:50.975Z,96815.02
2019-01-22T19:25:52.584Z,96820.23
2019-01-22T19:27:54.210Z,96810.47
2019-01-22T19:29:55.815Z,96809.17
2019-01-22T19:31:57.451Z,96808.30
2019-01-22T19:33:59.059Z,96806.94
2019-01-22T19:36:01.340Z,96808.64
2019-01-22T19:38:02.333Z,96804.73
2019-01-22T19:40:03.983Z,96808.43
2019-01-22T19:42:05.597Z,96801.63
2019-01-22T19:44:07.204Z,96802.68
2019-01-22T19:46:08.801Z,96802.03
2019-01-22T19:48:10.406Z,96798.03
2019-01-22T19:50:12.006Z,96802.67
2019-01-22T19:52:13.630Z,96802.11
2019-01-22T19:54:15.231Z,96796.74
2019-01-22T19:56:16.829Z,96796.11
2019-01-22T19:58:18.429Z,96800.09
2019-01-22T20:00:20.021Z,96793.05
2019-01-22T20:02:21.617Z,96799.11
2019-01-22T20:04:23.272Z,96802.72
2019-01-22T20:06:24.885Z,96784.73
2019-01-22T20:08:26.483Z,96788.04
2019-01-22T20:10:28.121Z,96781.27
2019-01-22T20:12:29.731Z,96778.16
2019-01-22T20:14:31.316Z,96779.55
2019-01-22T20:16:32.914Z,96780.92
2019-01-22T20:18:34.528Z,96773.78
2019-01-22T20:20:36.121Z,96773.15
2019-01-22T20:22:37.747Z,96771.58
2019-01-22T20:24:39.351Z,96769.22
2019-01-22T20:26:40.964Z,96770.30
2019-01-22T20:28:42.556Z,96763.23
2019-01-22T20:30:48.284Z,96772.28
2019-01-22T20:32:45.834Z,96764.75
2019-01-22T20:34:47.419Z,96762.37
2019-01-22T20:36:49.027Z,96759.63
2019-01-22T20:38:50.635Z,96757.68
2019-01-22T20:40:52.234Z,96767.52
2019-01-22T20:42:53.822Z,96756.57
2019-01-22T20:44:55.422Z,96754.19
2019-01-22T20:46:57.004Z,96751.70
2019-01-22T20:48:58.641Z,96748.39
2019-01-22T20:51:00.227Z,96753.52
2019-01-22T20:53:01.864Z,96749.33
2019-01-22T20:55:03.509Z,96753.15
2019-01-22T20:57:05.092Z,96746.75
2019-01-22T20:59:06.680Z,96740.81
2019-01-22T21:01:08.291Z,96738.56
2019-01-22T21:03:09.894Z,96742.22
2019-01-22T21:05:11.494Z,96734.84
2019-01-22T21:07:13.103Z,96731.55
2019-01-22T21:09:14.756Z,96733.57
2019-01-22T21:11:16.344Z,96737.00
2019-01-22T21:13:17.928Z,96728.88
2019-01-22T21:15:19.556Z,96734.50
2019-01-22T21:17:21.172Z,96748.16
2019-01-22T21:19:22.770Z,96724.05
2019-01-22T21:21:24.384Z,96726.72
2019-01-22T21:23:25.969Z,96724.70
2019-01-22T21:25:27.583Z,96727.77
2019-01-22T21:27:29.208Z,96721.03
2019-01-22T21:29:30.792Z,96724.06
2019-01-22T21:31:32.395Z,96722.79
2019-01-22T21:33:33.989Z,96718.63
2019-01-22T21:35:35.585Z,96720.00
2019-01-22T21:37:37.210Z,96717.13
2019-01-22T21:39:38.810Z,96713.39
2019-01-22T21:41:40.406Z,96716.38
2019-01-22T21:43:42.028Z,96712.19
2019-01-22T21:45:43.625Z,96707.99
2019-01-22T21:47:45.222Z,96704.27
2019-01-22T21:49:46.846Z,96708.55
2019-01-22T21:51:48.445Z,96705.17
2019-01-22T21:53:50.077Z,96702.66
2019-01-22T21:55:51.683Z,96702.53
2019-01-22T21:57:53.285Z,96693.75
2019-01-22T21:59:54.910Z,96694.14
2019-01-22T22:01:56.579Z,96693.52
2019-01-22T22:03:58.285Z,96689.32
2019-01-22T22:05:59.933Z,96688.55
2019-01-22T22:08:01.531Z,96687.45
2019-01-22T22:10:03.126Z,96680.63
2019-01-22T22:12:04.780Z,96684.52
2019-01-22T22:14:06.385Z,96688.66
2019-01-22T22:16:08.020Z,96682.46
2019-01-22T22:18:09.627Z,96680.21
2019-01-22T22:20:11.215Z,96675.50
2019-01-22T22:22:12.810Z,96667.63
2019-01-22T22:24:14.415Z,96676.10
2019-01-22T22:26:16.019Z,96674.55
2019-01-22T22:28:17.627Z,96673.34
2019-01-22T22:30:19.231Z,96666.09
2019-01-22T22:32:20.829Z,96671.95
2019-01-22T22:34:22.458Z,96668.98
2019-01-22T22:36:24.068Z,96664.18
2019-01-22T22:38:25.670Z,96665.23
2019-01-22T22:40:27.299Z,96655.28
2019-01-22T22:42:28.915Z,96659.81
2019-01-22T22:44:30.626Z,96655.84
2019-01-22T22:46:32.247Z,96652.80
2019-01-22T22:48:33.855Z,96655.84
2019-01-22T22:50:35.454Z,96653.91
2019-01-22T22:52:37.062Z,96645.34
2019-01-22T22:54:38.659Z,96647.59
2019-01-22T22:56:40.316Z,96638.90
2019-01-22T22:58:41.927Z,96636.67
2019-01-22T23:00:43.531Z,96637.70
2019-01-22T23:02:45.154Z,96639.03
2019-01-22T23:04:46.753Z,96635.05
2019-01-22T23:06:48.364Z,96629.08
2019-01-22T23:08:49.971Z,96633.59
2019-01-22T23:10:51.619Z,96634.90
2019-01-22T23:12:53.217Z,96625.05
2019-01-22T23:14:54.817Z,96635.04
2019-01-22T23:16:56.413Z,96623.52
2019-01-22T23:18:58.024Z,96627.38
2019-01-22T23:20:59.618Z,96624.54
2019-01-22T23:23:01.256Z,96622.67
2019-01-22T23:25:02.936Z,96621.73
2019-01-22T23:27:04.578Z,96623.77
2019-01-22T23:29:06.173Z,96615.09
2019-01-22T23:31:07.770Z,96621.11
2019-01-22T23:33:09.393Z,96615.61
2019-01-22T23:35:11.004Z,96609.55
2019-01-22T23:37:12.597Z,96612.77
2019-01-22T23:39:14.208Z,96603.52
2019-01-22T23:41:15.864Z,96610.82
2019-01-22T23:43:17.463Z,96605.98
2019-01-22T23:45:19.061Z,96601.55
2019-01-22T23:47:20.643Z,96599.34